Time;durP1;ratioP1;P1;durP2;ratioP2;P2;SDS_P1;SDS_P2;PMS_P1;PMS_P2;Temp;Humidity;BMP_temperature;BMP_pressure;BME280_temperature;BME280_humidity;BME280_pressure;Samples;Min_cycle;Max_cycle;Signal;HPM_P1;HPM_P2
2021/05/19 00:02:19;;;;;;;;;;;;;;;16.20;73.06;98575.83;1655367;85;20179;-59
2021/05/19 00:04:46;;;;;;;;;;;;;;;16.20;72.98;98577.19;1674946;85;20603;-59
2021/05/19 00:07:12;;;;;;;;;;;;;;;16.18;72.97;98581.55;1674461;85;20179;-60
2021/05/19 00:09:40;;;;;;;;;;;;;;;16.16;72.85;98583.72;1672096;85;20175;-59
2021/05/19 00:12:07;;;;;;;;;;;;;;;16.14;72.80;98579.73;1674968;85;21767;-60
2021/05/19 00:14:35;;;;;;;;;;;;;;;16.11;72.73;98587.88;1672007;85;20262;-59
2021/05/19 00:17:02;;;;;;;;;;;;;;;16.08;72.67;98589.27;1675019;85;20195;-59
2021/05/19 00:19:29;;;;;;;;;;;;;;;16.05;72.63;98591.78;1674947;85;20166;-59
2021/05/19 00:21:55;;;;;;;;;;;;;;;16.01;72.57;98583.45;1674902;85;20258;-60
2021/05/19 00:24:22;;;;;;;;;;;;;;;15.99;72.51;98584.31;1675095;85;21623;-59
2021/05/19 00:26:48;;;;;;;;;;;;;;;15.96;72.48;98579.50;1655727;85;20135;-59
2021/05/19 00:29:15;;;;;;;;;;;;;;;15.93;72.45;98578.19;1655688;85;20567;-60
2021/05/19 00:31:42;;;;;;;;;;;;;;;15.90;72.46;98579.31;1674870;85;20179;-60
2021/05/19 00:34:10;;;;;;;;;;;;;;;15.85;72.36;98577.50;1671944;85;20183;-59
2021/05/19 00:36:37;;;;;;;;;;;;;;;15.81;72.35;98572.47;1674858;85;21696;-60
2021/05/19 00:39:05;;;;;;;;;;;;;;;15.76;72.30;98574.65;1681572;84;20577;-59
2021/05/19 00:41:32;;;;;;;;;;;;;;;15.73;72.24;98574.45;1696631;83;20169;-60
2021/05/19 00:44:05;;;;;;;;;;;;;;;15.70;72.19;98573.69;1693321;84;20173;-60
2021/05/19 00:46:33;;;;;;;;;;;;;;;15.67;72.19;98568.88;1695816;83;20275;-59
2021/05/19 00:48:59;;;;;;;;;;;;;;;15.64;72.17;98563.52;1696357;84;21116;-60
2021/05/19 00:51:26;;;;;;;;;;;;;;;15.63;72.14;98561.91;1696499;84;20185;-59
2021/05/19 00:53:55;;;;;;;;;;;;;;;15.61;72.07;98561.97;1696577;84;20169;-59
2021/05/19 00:56:25;;;;;;;;;;;;;;;15.58;71.97;98561.45;1696550;84;20165;-60
2021/05/19 00:58:55;;;;;;;;;;;;;;;15.55;71.89;98560.69;1696641;84;20189;-59
2021/05/19 01:01:21;;;;;;;;;;;;;;;15.52;71.79;98558.58;1675206;84;21075;-58
2021/05/19 01:03:50;;;;;;;;;;;;;;;15.50;71.70;98570.23;1694786;84;20202;-59
2021/05/19 01:06:25;;;;;;;;;;;;;;;15.47;71.68;98574.05;1695856;84;20177;-58
2021/05/19 01:11:32;;;;;;;;;;;;;;;15.42;71.59;98575.73;1678561;83;20222;-59
2021/05/19 01:13:59;;;;;;;;;;;;;;;15.40;71.46;98569.04;1696550;84;21078;-59
2021/05/19 01:16:26;;;;;;;;;;;;;;;15.36;71.34;98568.81;1696494;84;20169;-60
2021/05/19 01:18:54;;;;;;;;;;;;;;;15.32;71.34;98572.39;1696551;84;20150;-61
2021/05/19 01:21:21;;;;;;;;;;;;;;;15.29;71.37;98577.03;1696516;84;20586;-59
2021/05/19 01:23:50;;;;;;;;;;;;;;;15.26;71.41;98587.86;1692470;84;20161;-58
2021/05/19 01:26:17;;;;;;;;;;;;;;;15.21;71.61;98584.69;1696477;84;20557;-58
2021/05/19 01:28:44;;;;;;;;;;;;;;;15.21;71.74;98587.95;1696365;84;20169;-60
2021/05/19 01:31:13;;;;;;;;;;;;;;;15.21;72.04;98595.48;1696693;84;20146;-59
2021/05/19 01:33:40;;;;;;;;;;;;;;;15.21;72.11;98601.44;1674988;84;20194;-61
2021/05/19 01:36:07;;;;;;;;;;;;;;;15.18;72.06;98601.47;1696621;84;20213;-59
2021/05/19 01:38:34;;;;;;;;;;;;;;;15.16;71.93;98604.20;1696559;84;21176;-60
2021/05/19 01:41:02;;;;;;;;;;;;;;;15.13;71.81;98605.57;1696567;84;20137;-58
2021/05/19 01:43:34;;;;;;;;;;;;;;;15.13;71.76;98609.62;1695286;84;20205;-60
2021/05/19 01:46:11;;;;;;;;;;;;;;;15.13;71.62;98602.08;1696904;84;20408;-58
2021/05/19 01:48:38;;;;;;;;;;;;;;;15.11;71.47;98606.42;1696433;84;20579;-60
2021/05/19 01:51:05;;;;;;;;;;;;;;;15.08;71.36;98604.86;1696845;84;20969;-59
2021/05/19 01:53:33;;;;;;;;;;;;;;;15.08;71.29;98610.26;1696457;84;20133;-59
2021/05/19 01:56:00;;;;;;;;;;;;;;;15.03;71.29;98602.48;1693881;84;20165;-59
2021/05/19 01:58:28;;;;;;;;;;;;;;;15.00;71.35;98599.02;1696548;84;20206;-60
2021/05/19 02:00:56;;;;;;;;;;;;;;;14.95;71.46;98603.12;1696690;84;20172;-59
2021/05/19 02:03:24;;;;;;;;;;;;;;;14.92;71.71;98601.00;1672224;84;21020;-60
2021/05/19 02:05:52;;;;;;;;;;;;;;;14.91;71.92;98605.34;1688852;84;20562;-58
2021/05/19 02:08:20;;;;;;;;;;;;;;;14.89;72.07;98605.08;1696501;84;20205;-59
2021/05/19 02:10:48;;;;;;;;;;;;;;;14.89;72.12;98608.33;1675097;84;20562;-59
2021/05/19 02:13:16;;;;;;;;;;;;;;;14.88;72.27;98606.71;1696509;84;20153;-61
2021/05/19 02:15:45;;;;;;;;;;;;;;;14.87;72.35;98607.27;1696531;84;20579;-59
2021/05/19 02:18:13;;;;;;;;;;;;;;;14.88;72.37;98612.11;1691786;84;20146;-60
2021/05/19 02:20:40;;;;;;;;;;;;;;;14.89;72.41;98616.42;1696756;83;20182;-60
2021/05/19 02:23:07;;;;;;;;;;;;;;;14.90;72.50;98623.43;1674353;84;20594;-61
2021/05/19 02:25:34;;;;;;;;;;;;;;;14.92;72.56;98620.44;1696390;84;20165;-60
2021/05/19 02:28:02;;;;;;;;;;;;;;;14.89;72.60;98628.00;1696405;84;22221;-59
2021/05/19 02:30:31;;;;;;;;;;;;;;;14.88;72.66;98621.55;1696407;84;20569;-60
2021/05/19 02:32:58;;;;;;;;;;;;;;;14.88;72.66;98628.30;1694154;83;20275;-59
2021/05/19 02:35:25;;;;;;;;;;;;;;;14.88;72.64;98623.72;1696194;84;20589;-59
2021/05/19 02:37:57;;;;;;;;;;;;;;;14.89;72.71;98624.52;1695938;84;20256;-60
2021/05/19 02:40:24;;;;;;;;;;;;;;;14.93;72.84;98626.90;1696317;84;21167;-60
2021/05/19 02:42:50;;;;;;;;;;;;;;;14.96;72.74;98635.76;1671598;83;20562;-60
2021/05/19 02:45:19;;;;;;;;;;;;;;;14.97;72.78;98631.98;1693948;84;20991;-60
2021/05/19 02:47:46;;;;;;;;;;;;;;;14.99;72.77;98637.88;1696554;84;20182;-59
2021/05/19 02:50:16;;;;;;;;;;;;;;;15.02;72.66;98636.50;1696597;84;20268;-60
2021/05/19 02:52:41;;;;;;;;;;;;;;;15.05;72.57;98644.81;1696395;84;21088;-60
2021/05/19 02:55:09;;;;;;;;;;;;;;;15.10;72.52;98652.59;1696579;84;20154;-60
2021/05/19 02:57:36;;;;;;;;;;;;;;;15.12;72.50;98643.64;1696928;83;20137;-60
2021/05/19 03:00:05;;;;;;;;;;;;;;;15.13;72.47;98635.81;1696564;84;20169;-60
2021/05/19 03:02:32;;;;;;;;;;;;;;;15.16;72.40;98639.28;1696416;84;20181;-60
2021/05/19 03:04:59;;;;;;;;;;;;;;;15.15;72.30;98633.61;1696481;84;21708;-59
2021/05/19 03:07:25;;;;;;;;;;;;;;;15.15;72.21;98634.97;1675024;84;20175;-60
2021/05/19 03:09:52;;;;;;;;;;;;;;;15.13;72.24;98630.42;1696656;84;20173;-59
2021/05/19 03:12:20;;;;;;;;;;;;;;;15.12;72.31;98639.59;1696392;84;20558;-60
2021/05/19 03:14:49;;;;;;;;;;;;;;;15.13;72.28;98637.16;1696506;84;20194;-60
2021/05/19 03:17:15;;;;;;;;;;;;;;;15.15;72.24;98639.84;1696565;84;21097;-60
2021/05/19 03:19:42;;;;;;;;;;;;;;;15.17;71.91;98648.99;1696584;83;20145;-60
2021/05/19 03:22:09;;;;;;;;;;;;;;;15.06;71.88;98646.95;1696475;84;20177;-60
2021/05/19 03:24:36;;;;;;;;;;;;;;;14.95;72.12;98648.98;1696351;84;20173;-59
2021/05/19 03:27:04;;;;;;;;;;;;;;;14.83;72.40;98649.39;1675304;84;20225;-60
2021/05/19 03:29:31;;;;;;;;;;;;;;;14.77;72.88;98649.76;1696373;84;21837;-60
2021/05/19 03:31:58;;;;;;;;;;;;;;;14.78;73.11;98649.99;1696486;84;20182;-59
2021/05/19 03:34:25;;;;;;;;;;;;;;;14.82;73.06;98649.12;1696399;84;20177;-61
2021/05/19 03:36:51;;;;;;;;;;;;;;;14.86;72.86;98648.81;1696556;84;20427;-60
2021/05/19 03:39:18;;;;;;;;;;;;;;;14.97;72.91;98650.86;1696356;83;20197;-61
2021/05/19 03:41:46;;;;;;;;;;;;;;;15.15;72.63;98651.16;1694215;84;21073;-62
2021/05/19 03:44:13;;;;;;;;;;;;;;;15.38;72.16;98652.20;1693520;84;20165;-60
2021/05/19 03:46:40;;;;;;;;;;;;;;;15.56;71.50;98652.77;1694298;84;20169;-59
2021/05/19 03:49:06;;;;;;;;;;;;;;;15.69;71.04;98653.91;1694080;84;20564;-59
2021/05/19 03:51:33;;;;;;;;;;;;;;;15.77;70.20;98645.70;1694315;84;20162;-60
2021/05/19 03:54:00;;;;;;;;;;;;;;;15.79;69.37;98648.14;1664941;84;21681;-59
2021/05/19 03:56:27;;;;;;;;;;;;;;;15.71;69.16;98646.33;1694101;84;20165;-60
2021/05/19 03:58:53;;;;;;;;;;;;;;;15.75;69.09;98643.30;1693676;84;20174;-60
2021/05/19 04:01:22;;;;;;;;;;;;;;;16.17;68.74;98642.10;1694164;84;20206;-61
2021/05/19 04:03:51;;;;;;;;;;;;;;;16.68;67.57;98644.96;1694239;84;20194;-61
2021/05/19 04:06:21;;;;;;;;;;;;;;;17.01;66.78;98636.22;1694382;84;21719;-62
2021/05/19 04:08:48;;;;;;;;;;;;;;;17.19;64.81;98643.95;1694113;84;20202;-61
2021/05/19 04:11:15;;;;;;;;;;;;;;;17.18;64.44;98638.84;1694054;84;20189;-61
2021/05/19 04:13:42;;;;;;;;;;;;;;;17.24;64.15;98641.15;1694279;84;20182;-61
2021/05/19 04:16:10;;;;;;;;;;;;;;;17.35;63.75;98644.42;1694228;84;20558;-60
2021/05/19 04:18:37;;;;;;;;;;;;;;;17.45;62.75;98647.47;1694229;84;21112;-62
2021/05/19 04:21:05;;;;;;;;;;;;;;;17.34;62.89;98645.52;1690055;84;20169;-62
2021/05/19 04:23:33;;;;;;;;;;;;;;;17.32;62.85;98648.53;1694389;84;20150;-62
2021/05/19 04:25:59;;;;;;;;;;;;;;;17.26;63.12;98651.11;1694349;84;20210;-61
2021/05/19 04:28:27;;;;;;;;;;;;;;;17.34;63.20;98652.30;1694209;84;20185;-60
2021/05/19 04:30:53;;;;;;;;;;;;;;;17.63;62.77;98649.77;1694416;84;21665;-61
2021/05/19 04:33:22;;;;;;;;;;;;;;;17.78;61.49;98657.52;1694331;84;20185;-61
2021/05/19 04:35:49;;;;;;;;;;;;;;;17.66;61.13;98659.42;1694232;83;20165;-61
2021/05/19 04:38:15;;;;;;;;;;;;;;;17.58;61.51;98658.81;1694248;84;20158;-64
2021/05/19 04:40:44;;;;;;;;;;;;;;;17.42;62.34;98658.36;1694364;84;20242;-60
2021/05/19 04:43:10;;;;;;;;;;;;;;;17.32;62.84;98655.31;1694458;84;21162;-61
2021/05/19 04:45:38;;;;;;;;;;;;;;;17.10;62.84;98655.25;1694328;84;20178;-61
2021/05/19 04:48:05;;;;;;;;;;;;;;;16.78;63.64;98659.11;1693142;83;20241;-60
2021/05/19 04:50:32;;;;;;;;;;;;;;;16.56;64.43;98662.51;1693272;84;20578;-60
2021/05/19 04:52:59;;;;;;;;;;;;;;;16.37;65.01;98668.52;1694129;84;20197;-60
2021/05/19 04:55:26;;;;;;;;;;;;;;;16.22;65.49;98670.94;1693090;83;21114;-61
2021/05/19 04:57:53;;;;;;;;;;;;;;;16.12;66.06;98674.61;1694062;84;20174;-62
2021/05/19 05:00:20;;;;;;;;;;;;;;;16.02;66.39;98670.19;1694172;84;20166;-59
2021/05/19 05:02:47;;;;;;;;;;;;;;;15.95;66.47;98684.63;1693484;84;20256;-61
2021/05/19 05:05:13;;;;;;;;;;;;;;;15.90;66.33;98684.69;1693947;84;20229;-61
2021/05/19 05:07:40;;;;;;;;;;;;;;;15.86;66.21;98695.86;1693988;84;21100;-62
2021/05/19 05:10:08;;;;;;;;;;;;;;;15.78;66.33;98691.89;1694075;84;20182;-60
2021/05/19 05:12:35;;;;;;;;;;;;;;;15.68;66.54;98703.64;1694268;84;20222;-60
2021/05/19 05:15:04;;;;;;;;;;;;;;;15.62;66.90;98706.17;1692818;84;20166;-60
2021/05/19 05:17:31;;;;;;;;;;;;;;;15.56;67.17;98708.66;1693542;84;20222;-62
2021/05/19 05:19:58;;;;;;;;;;;;;;;15.52;67.40;98704.95;1664455;84;21060;-62
2021/05/19 05:22:27;;;;;;;;;;;;;;;15.48;67.77;98702.02;1664545;84;20174;-59
2021/05/19 05:24:57;;;;;;;;;;;;;;;15.45;68.23;98712.05;1693662;84;20209;-60
2021/05/19 05:27:27;;;;;;;;;;;;;;;15.39;68.12;98704.56;1689317;84;20163;-60
2021/05/19 05:29:55;;;;;;;;;;;;;;;15.38;68.53;98703.50;1691974;84;20285;-61
2021/05/19 05:32:22;;;;;;;;;;;;;;;15.40;68.57;98696.73;1692316;84;21110;-60
2021/05/19 05:34:49;;;;;;;;;;;;;;;15.40;68.55;98694.03;1691336;84;20174;-60
2021/05/19 05:37:18;;;;;;;;;;;;;;;15.45;68.33;98695.06;1693627;83;20209;-59
2021/05/19 05:39:47;;;;;;;;;;;;;;;15.45;68.47;98693.16;1693643;84;20215;-60
2021/05/19 05:42:15;;;;;;;;;;;;;;;15.52;68.40;98699.55;1693140;84;20233;-61
2021/05/19 05:44:49;;;;;;;;;;;;;;;15.58;68.49;98697.03;1693308;84;21116;-60
2021/05/19 05:47:37;;;;;;;;;;;;;;;15.65;68.23;98702.88;1693365;84;20186;-60
2021/05/19 05:50:11;;;;;;;;;;;;;;;15.68;67.97;98698.23;1693473;84;20181;-61
2021/05/19 05:52:47;;;;;;;;;;;;;;;15.70;68.08;98700.09;1693597;84;20149;-59
2021/05/19 05:55:15;;;;;;;;;;;;;;;15.70;68.24;98696.59;1693627;84;20187;-61
2021/05/19 05:57:42;;;;;;;;;;;;;;;15.73;68.32;98695.45;1693576;84;21105;-61
2021/05/19 06:00:15;;;;;;;;;;;;;;;15.77;68.47;98703.79;1690965;84;20169;-60
2021/05/19 06:02:49;;;;;;;;;;;;;;;15.80;68.29;98703.23;1690203;84;20274;-59
2021/05/19 06:05:19;;;;;;;;;;;;;;;15.80;68.09;98705.11;1690751;84;20232;-61
2021/05/19 06:07:56;;;;;;;;;;;;;;;15.79;68.11;98700.82;1692833;84;20269;-60
2021/05/19 06:10:22;;;;;;;;;;;;;;;15.84;67.86;98710.19;1693527;84;21119;-61
2021/05/19 06:12:52;;;;;;;;;;;;;;;15.87;67.79;98709.07;1693544;84;20150;-59
2021/05/19 06:15:27;;;;;;;;;;;;;;;15.91;66.86;98716.03;1693497;84;20246;-60
2021/05/19 06:18:00;;;;;;;;;;;;;;;15.87;66.38;98709.07;1693250;84;20186;-61
2021/05/19 06:20:27;;;;;;;;;;;;;;;15.89;66.53;98706.86;1693562;84;20225;-59
2021/05/19 06:23:06;;;;;;;;;;;;;;;15.95;66.34;98710.30;1689947;84;21126;-60
2021/05/19 06:25:34;;;;;;;;;;;;;;;15.99;66.27;98719.95;1693213;84;20177;-59
2021/05/19 06:30:46;;;;;;;;;;;;;;;16.20;65.70;98719.11;1693660;84;20197;-61
2021/05/19 06:33:13;;;;;;;;;;;;;;;16.32;65.17;98711.88;1693863;84;20658;-60
2021/05/19 06:35:40;;;;;;;;;;;;;;;16.43;65.10;98710.06;1694075;84;21094;-61
2021/05/19 06:38:07;;;;;;;;;;;;;;;16.56;64.76;98703.08;1693605;84;20206;-60
2021/05/19 06:40:34;;;;;;;;;;;;;;;16.72;64.64;98708.98;1663883;84;20233;-60
2021/05/19 06:43:01;;;;;;;;;;;;;;;16.88;64.32;98716.30;1693947;84;20170;-61
2021/05/19 06:45:30;;;;;;;;;;;;;;;17.02;64.12;98713.62;1693435;84;20601;-62
2021/05/19 06:47:57;;;;;;;;;;;;;;;17.21;63.70;98712.16;1694021;84;21243;-61
2021/05/19 06:50:24;;;;;;;;;;;;;;;17.41;63.26;98716.89;1693680;84;20193;-62
2021/05/19 06:52:52;;;;;;;;;;;;;;;17.59;61.50;98721.35;1693219;84;20213;-61
2021/05/19 06:55:22;;;;;;;;;;;;;;;17.69;60.80;98717.62;1693759;84;20257;-61
2021/05/19 06:57:48;;;;;;;;;;;;;;;17.69;60.76;98718.42;1693789;84;20824;-62
2021/05/19 07:00:16;;;;;;;;;;;;;;;17.76;61.12;98719.37;1694018;84;21101;-62
2021/05/19 07:02:43;;;;;;;;;;;;;;;17.78;61.00;98721.77;1693773;84;20181;-62
2021/05/19 07:05:11;;;;;;;;;;;;;;;17.78;61.01;98723.13;1692390;84;20166;-61
2021/05/19 07:07:39;;;;;;;;;;;;;;;17.81;61.06;98727.94;1693716;84;20593;-61
2021/05/19 07:10:07;;;;;;;;;;;;;;;17.84;61.05;98729.49;1693859;84;20218;-63
2021/05/19 07:12:35;;;;;;;;;;;;;;;17.88;60.46;98729.67;1693775;84;20177;-61
2021/05/19 07:15:11;;;;;;;;;;;;;;;17.86;60.24;98732.69;1664613;84;20190;-61
2021/05/19 07:17:34;;;;;;;;;;;;;;;17.84;60.20;98736.27;1693371;84;20182;-61
2021/05/19 07:20:00;;;;;;;;;;;;;;;17.84;60.26;98740.87;1693743;84;20257;-61
2021/05/19 07:22:30;;;;;;;;;;;;;;;17.87;60.30;98740.25;1690313;84;20205;-61
2021/05/19 07:24:56;;;;;;;;;;;;;;;17.88;60.75;98740.52;1693361;83;21126;-63
2021/05/19 07:27:23;;;;;;;;;;;;;;;17.92;61.14;98743.42;1694258;84;20213;-60
2021/05/19 07:29:50;;;;;;;;;;;;;;;17.97;61.17;98748.19;1694598;84;20229;-61
2021/05/19 07:32:17;;;;;;;;;;;;;;;18.00;60.44;98752.20;1693913;84;20169;-62
2021/05/19 07:34:43;;;;;;;;;;;;;;;17.97;60.56;98754.96;1694222;84;20158;-63
2021/05/19 07:37:11;;;;;;;;;;;;;;;17.98;60.49;98761.20;1693705;84;20186;-61
2021/05/19 07:39:40;;;;;;;;;;;;;;;17.97;60.27;98765.80;1693109;83;20153;-63
2021/05/19 07:42:07;;;;;;;;;;;;;;;17.92;59.56;98768.64;1695451;84;20174;-60
2021/05/19 07:44:34;;;;;;;;;;;;;;;17.84;59.78;98777.45;1695870;84;21259;-61
2021/05/19 07:47:02;;;;;;;;;;;;;;;17.78;59.82;98769.98;1664731;84;20258;-62
2021/05/19 07:49:30;;;;;;;;;;;;;;;17.76;59.88;98780.34;1696196;84;20217;-64
2021/05/19 07:51:57;;;;;;;;;;;;;;;17.80;60.89;98777.28;1695534;84;20161;-64
2021/05/19 07:54:30;;;;;;;;;;;;;;;17.92;60.92;98775.42;1695805;83;20257;-63
2021/05/19 07:56:59;;;;;;;;;;;;;;;18.14;61.88;98777.36;1670732;84;20257;-63
2021/05/19 07:59:27;;;;;;;;;;;;;;;18.35;60.59;98770.89;1696313;83;20178;-64
2021/05/19 08:02:03;;;;;;;;;;;;;;;18.49;58.78;98776.80;1696394;84;22298;-63
2021/05/19 08:04:32;;;;;;;;;;;;;;;18.51;58.03;98777.31;1696727;83;20594;-63
2021/05/19 08:06:59;;;;;;;;;;;;;;;18.50;57.92;98779.77;1696334;84;20210;-64
2021/05/19 08:09:27;;;;;;;;;;;;;;;18.53;57.61;98778.58;1696215;84;20562;-64
2021/05/19 08:11:54;;;;;;;;;;;;;;;18.56;57.77;98777.17;1696230;84;20225;-65
2021/05/19 08:14:20;;;;;;;;;;;;;;;18.62;57.92;98774.56;1696606;84;21121;-64
2021/05/19 08:16:49;;;;;;;;;;;;;;;18.69;57.79;98770.06;1691735;84;20150;-64
2021/05/19 08:19:17;;;;;;;;;;;;;;;18.81;57.58;98775.71;1696301;84;20574;-63
2021/05/19 08:21:44;;;;;;;;;;;;;;;18.91;57.95;98779.55;1694936;84;20182;-64
2021/05/19 08:24:10;;;;;;;;;;;;;;;18.93;56.16;98778.45;1696198;84;20170;-62
2021/05/19 08:26:37;;;;;;;;;;;;;;;18.76;56.25;98783.19;1696242;84;22272;-64
2021/05/19 08:29:04;;;;;;;;;;;;;;;18.60;57.05;98791.73;1696262;84;20173;-63
2021/05/19 08:31:31;;;;;;;;;;;;;;;18.52;57.45;98788.39;1696571;84;20194;-63
2021/05/19 08:33:58;;;;;;;;;;;;;;;18.46;58.14;98799.13;1696477;84;20169;-63
2021/05/19 08:36:25;;;;;;;;;;;;;;;18.38;59.10;98800.11;1696349;84;20197;-63
2021/05/19 08:38:53;;;;;;;;;;;;;;;18.24;59.37;98798.56;1696369;84;21119;-62
2021/05/19 08:41:19;;;;;;;;;;;;;;;18.07;60.30;98790.53;1694975;84;20217;-64
2021/05/19 08:43:46;;;;;;;;;;;;;;;17.93;60.93;98790.59;1674837;85;20195;-64
2021/05/19 08:46:14;;;;;;;;;;;;;;;17.77;61.79;98790.08;1671837;85;20286;-63
2021/05/19 08:48:51;;;;;;;;;;;;;;;17.64;62.22;98793.06;1674807;85;20222;-63
2021/05/19 08:51:11;;;;;;;;;;;;;;;17.50;62.75;98802.56;1675186;85;21121;-63
2021/05/19 08:53:38;;;;;;;;;;;;;;;17.39;63.39;98798.45;1674585;85;20928;-62
2021/05/19 08:56:06;;;;;;;;;;;;;;;17.34;63.48;98789.87;1674946;85;20151;-63
2021/05/19 08:58:34;;;;;;;;;;;;;;;17.28;63.61;98788.91;1674818;85;20536;-63
2021/05/19 09:01:01;;;;;;;;;;;;;;;17.29;63.81;98802.71;1674915;85;20178;-63
2021/05/19 09:03:28;;;;;;;;;;;;;;;17.34;63.85;98802.59;1675104;85;21099;-64
2021/05/19 09:05:55;;;;;;;;;;;;;;;17.39;64.00;98809.28;1674252;85;20183;-64
2021/05/19 09:08:24;;;;;;;;;;;;;;;17.43;64.31;98806.23;1674981;85;20464;-64
2021/05/19 09:11:01;;;;;;;;;;;;;;;17.48;63.82;98816.16;1675094;85;20227;-63
2021/05/19 09:13:33;;;;;;;;;;;;;;;17.52;63.45;98806.33;1674840;85;20162;-63
2021/05/19 09:16:00;;;;;;;;;;;;;;;17.51;61.50;98812.28;1674553;85;21125;-63
2021/05/19 09:18:48;;;;;;;;;;;;;;;17.48;60.51;98810.17;1675027;85;20154;-64
2021/05/19 09:21:38;;;;;;;;;;;;;;;17.44;59.75;98805.67;1637291;85;20678;-63
2021/05/19 09:24:10;;;;;;;;;;;;;;;17.34;59.52;98810.19;1674902;85;20151;-63
2021/05/19 09:26:53;;;;;;;;;;;;;;;17.24;59.95;98818.51;1674653;85;20175;-63
2021/05/19 09:29:24;;;;;;;;;;;;;;;17.13;60.07;98822.50;1675188;85;21093;-63
2021/05/19 09:32:01;;;;;;;;;;;;;;;17.02;60.79;98825.95;1675127;85;20147;-63
2021/05/19 09:34:31;;;;;;;;;;;;;;;16.88;61.28;98824.55;1674963;85;20469;-64
2021/05/19 09:37:24;;;;;;;;;;;;;;;16.71;61.76;98826.98;1671641;85;20159;-64
2021/05/19 09:40:07;;;;;;;;;;;;;;;16.56;62.20;98820.75;1674507;85;20606;-64
2021/05/19 09:42:47;;;;;;;;;;;;;;;16.33;63.28;98819.74;1685067;83;21204;-64
2021/05/19 09:45:29;;;;;;;;;;;;;;;16.18;63.20;98818.08;1693556;84;20210;-63
2021/05/19 09:47:56;;;;;;;;;;;;;;;16.11;63.57;98818.98;1694578;83;20633;-64
2021/05/19 09:50:37;;;;;;;;;;;;;;;16.08;65.02;98820.92;1694406;84;20254;-64
2021/05/19 09:53:10;;;;;;;;;;;;;;;16.06;66.25;98822.56;1692868;84;20186;-64
2021/05/19 09:55:40;;;;;;;;;;;;;;;16.09;67.22;98823.33;1693839;84;21130;-63
2021/05/19 09:58:11;;;;;;;;;;;;;;;16.11;67.87;98819.78;1693947;84;20181;-63
2021/05/19 10:00:35;;;;;;;;;;;;;;;16.17;68.37;98821.86;1689847;83;20186;-65
2021/05/19 10:03:03;;;;;;;;;;;;;;;16.28;68.79;98817.92;1694284;84;20562;-64
2021/05/19 10:05:35;;;;;;;;;;;;;;;16.43;68.78;98823.64;1694301;84;20182;-64
2021/05/19 10:08:02;;;;;;;;;;;;;;;16.57;68.01;98826.95;1694370;83;21125;-63
2021/05/19 10:10:30;;;;;;;;;;;;;;;16.68;67.58;98817.58;1672642;84;20261;-64
2021/05/19 10:12:57;;;;;;;;;;;;;;;16.76;67.42;98819.58;1694287;84;20586;-64
2021/05/19 10:15:25;;;;;;;;;;;;;;;16.86;68.55;98815.09;1694200;84;20245;-63
2021/05/19 10:18:02;;;;;;;;;;;;;;;16.95;67.71;98830.95;1691536;83;20157;-64
2021/05/19 10:20:30;;;;;;;;;;;;;;;16.97;67.81;98826.03;1694196;84;21179;-65
2021/05/19 10:22:57;;;;;;;;;;;;;;;17.01;68.22;98822.19;1694366;84;20257;-64
2021/05/19 10:25:45;;;;;;;;;;;;;;;17.10;68.57;98825.24;1694273;83;20579;-64
2021/05/19 10:28:12;;;;;;;;;;;;;;;17.21;67.96;98815.05;1694061;84;20229;-64
2021/05/19 10:30:48;;;;;;;;;;;;;;;17.33;67.68;98826.73;1694394;83;20594;-63
2021/05/19 10:33:31;;;;;;;;;;;;;;;17.37;66.62;98820.16;1694288;84;21128;-64
2021/05/19 10:36:00;;;;;;;;;;;;;;;17.42;66.30;98822.78;1694476;84;20180;-64
2021/05/19 10:38:31;;;;;;;;;;;;;;;17.53;66.27;98821.45;1687209;84;20602;-64
2021/05/19 10:40:57;;;;;;;;;;;;;;;17.65;66.00;98820.95;1694489;84;20261;-65
2021/05/19 10:43:50;;;;;;;;;;;;;;;17.82;66.97;98818.98;1694251;84;20173;-63
2021/05/19 10:46:54;;;;;;;;;;;;;;;18.00;65.85;98817.27;1694389;84;21104;-66
2021/05/19 10:49:21;;;;;;;;;;;;;;;18.19;65.40;98817.91;1694116;84;20570;-65
2021/05/19 10:57:58;;;;;;;;;;;;;;;18.72;62.47;98810.16;1691114;84;20558;-65
2021/05/19 11:00:31;;;;;;;;;;;;;;;18.86;59.79;98804.66;1694140;84;21028;-66
2021/05/19 11:03:04;;;;;;;;;;;;;;;18.95;56.35;98808.25;1692085;84;20181;-65
2021/05/19 11:05:56;;;;;;;;;;;;;;;18.92;54.30;98806.16;1691607;84;20527;-65
2021/05/19 11:08:29;;;;;;;;;;;;;;;18.80;54.20;98805.34;1690847;84;20181;-65
2021/05/19 11:11:18;;;;;;;;;;;;;;;18.74;55.41;98802.49;1690092;84;20544;-65
2021/05/19 11:13:58;;;;;;;;;;;;;;;18.76;56.05;98789.97;1694206;84;22277;-65
2021/05/19 11:16:29;;;;;;;;;;;;;;;18.85;58.08;98803.05;1694191;84;20615;-65
2021/05/19 11:19:09;;;;;;;;;;;;;;;18.91;58.16;98805.91;1660454;84;20569;-65
2021/05/19 11:21:34;;;;;;;;;;;;;;;18.97;58.79;98810.09;1693774;84;20186;-65
2021/05/19 11:24:12;;;;;;;;;;;;;;;19.04;58.56;98805.02;1689336;84;20153;-65
2021/05/19 11:26:45;;;;;;;;;;;;;;;19.09;57.62;98813.58;1691639;84;21153;-65
2021/05/19 11:29:14;;;;;;;;;;;;;;;18.99;56.75;98813.84;1694030;84;20751;-64
2021/05/19 11:31:43;;;;;;;;;;;;;;;18.79;57.33;98817.30;1694215;84;20503;-65
2021/05/19 11:34:11;;;;;;;;;;;;;;;18.66;57.27;98813.55;1694129;84;20566;-64
2021/05/19 11:36:45;;;;;;;;;;;;;;;18.51;57.41;98818.01;1694164;84;20229;-65
2021/05/19 11:39:37;;;;;;;;;;;;;;;18.35;58.01;98811.58;1694235;84;21215;-65
2021/05/19 11:42:24;;;;;;;;;;;;;;;18.30;58.39;98808.17;1692314;84;20166;-64
2021/05/19 11:45:06;;;;;;;;;;;;;;;18.29;58.42;98808.74;1692258;84;20233;-64
2021/05/19 11:47:36;;;;;;;;;;;;;;;18.25;57.98;98809.66;1692246;84;20558;-65
2021/05/19 11:50:16;;;;;;;;;;;;;;;18.18;57.71;98807.36;1692180;84;20185;-65
2021/05/19 11:53:03;;;;;;;;;;;;;;;18.16;58.34;98809.03;1683991;84;20571;-64
2021/05/19 11:55:40;;;;;;;;;;;;;;;18.18;57.65;98806.83;1692184;83;20177;-65
2021/05/19 11:58:10;;;;;;;;;;;;;;;18.19;57.39;98800.28;1691740;84;20197;-66
2021/05/19 12:00:48;;;;;;;;;;;;;;;18.25;56.96;98802.32;1692139;84;20166;-63
2021/05/19 12:03:17;;;;;;;;;;;;;;;18.31;57.36;98801.09;1691512;82;20284;-64
2021/05/19 12:05:51;;;;;;;;;;;;;;;18.45;57.72;98807.83;1691874;84;21067;-64
2021/05/19 12:08:23;;;;;;;;;;;;;;;18.57;56.50;98801.84;1692109;84;20206;-64
2021/05/19 12:11:15;;;;;;;;;;;;;;;18.62;57.02;98803.63;1692128;84;20201;-65
2021/05/19 12:13:47;;;;;;;;;;;;;;;18.63;57.41;98806.03;1691874;85;20214;-65
2021/05/19 12:16:22;;;;;;;;;;;;;;;18.73;57.29;98804.98;1692376;83;20162;-64
2021/05/19 12:19:01;;;;;;;;;;;;;;;18.80;57.75;98800.45;1686456;84;20158;-65
2021/05/19 12:21:28;;;;;;;;;;;;;;;18.80;56.70;98799.92;1691944;85;20134;-64
2021/05/19 12:23:55;;;;;;;;;;;;;;;18.76;56.19;98799.47;1693057;83;20550;-64
2021/05/19 12:26:26;;;;;;;;;;;;;;;18.66;56.81;98796.47;1670450;84;20161;-64
2021/05/19 12:28:53;;;;;;;;;;;;;;;18.64;56.44;98791.89;1692166;85;20206;-64
2021/05/19 12:31:28;;;;;;;;;;;;;;;18.64;56.28;98795.43;1670089;85;21138;-63
2021/05/19 12:33:55;;;;;;;;;;;;;;;18.69;56.17;98798.00;1693550;83;20130;-64
2021/05/19 12:36:28;;;;;;;;;;;;;;;18.78;55.84;98796.70;1670493;85;20165;-63
2021/05/19 12:38:59;;;;;;;;;;;;;;;18.87;56.09;98804.92;1692110;85;20242;-63
2021/05/19 12:41:42;;;;;;;;;;;;;;;18.92;54.80;98807.52;1692020;84;20173;-63
2021/05/19 12:44:14;;;;;;;;;;;;;;;18.90;54.52;98813.80;1694870;84;21119;-63
2021/05/19 12:47:00;;;;;;;;;;;;;;;18.85;54.63;98814.70;1693364;84;20194;-66
2021/05/19 12:49:26;;;;;;;;;;;;;;;18.81;54.98;98812.92;1696383;84;20150;-64
2021/05/19 12:51:55;;;;;;;;;;;;;;;18.83;55.08;98806.62;1696381;83;20165;-64
2021/05/19 12:54:28;;;;;;;;;;;;;;;18.88;55.30;98801.89;1697538;82;20189;-62
2021/05/19 12:57:09;;;;;;;;;;;;;;;18.94;55.14;98812.06;1696480;84;21112;-64
2021/05/19 12:59:56;;;;;;;;;;;;;;;18.99;54.75;98810.59;1697320;82;20248;-64
2021/05/19 13:02:27;;;;;;;;;;;;;;;19.05;54.87;98813.95;1696657;83;20201;-63
2021/05/19 13:04:54;;;;;;;;;;;;;;;19.10;55.45;98815.75;1692919;83;20630;-62
2021/05/19 13:07:23;;;;;;;;;;;;;;;19.12;56.13;98813.52;1696446;84;20285;-63
2021/05/19 13:10:15;;;;;;;;;;;;;;;19.15;56.03;98819.11;1696522;83;21173;-63
2021/05/19 13:15:45;;;;;;;;;;;;;;;19.15;55.81;98812.89;1696620;84;20146;-63
2021/05/19 13:18:48;;;;;;;;;;;;;;;19.13;55.45;98805.05;1674450;84;20657;-63